createdAt,value
2023-03-12T00:00:22.888Z,75.09
2023-03-12T00:01:22.898Z,75.01
2023-03-12T00:02:22.959Z,75.01
2023-03-12T00:03:22.868Z,75.29
2023-03-12T00:04:22.928Z,75.09
2023-03-12T00:05:22.880Z,75.19
2023-03-12T00:06:22.816Z,74.91
2023-03-12T00:07:22.797Z,74.98
2023-03-12T00:08:22.785Z,75.12
2023-03-12T00:09:22.779Z,74.98
2023-03-12T00:10:22.783Z,74.56
2023-03-12T00:11:22.754Z,74.66
2023-03-12T00:12:22.904Z,74.35
2023-03-12T00:13:22.730Z,74.60
2023-03-12T00:14:22.721Z,75.09
2023-03-12T00:15:22.710Z,74.56
2023-03-12T00:16:22.787Z,74.87
2023-03-12T00:17:22.723Z,74.87
2023-03-12T00:18:22.677Z,74.91
2023-03-12T00:19:22.666Z,74.70
2023-03-12T00:20:22.703Z,74.70
2023-03-12T00:21:22.649Z,74.66
2023-03-12T00:22:22.640Z,74.29
2023-03-12T00:23:22.631Z,74.15
2023-03-12T00:24:22.632Z,74.35
2023-03-12T00:25:22.624Z,74.18
2023-03-12T00:26:22.598Z,74.04
2023-03-12T00:27:22.584Z,74.07
2023-03-12T00:28:22.571Z,74.04
2023-03-12T00:29:22.566Z,73.73
2023-03-12T00:30:22.589Z,73.86
2023-03-12T00:31:22.602Z,74.46
2023-03-12T00:32:22.601Z,74.39
2023-03-12T00:33:22.514Z,73.83
2023-03-12T00:34:22.504Z,74.15
2023-03-12T00:35:22.527Z,74.15
2023-03-12T00:36:22.501Z,74.04
2023-03-12T00:37:22.480Z,73.86
2023-03-12T00:38:22.466Z,73.73
2023-03-12T00:39:22.457Z,74.04
2023-03-12T00:40:22.460Z,73.97
2023-03-12T00:41:22.430Z,74.15
2023-03-12T00:42:22.422Z,73.76
2023-03-12T00:43:22.429Z,74.04
2023-03-12T00:44:22.395Z,73.63
2023-03-12T00:45:22.415Z,73.63
2023-03-12T00:46:22.447Z,73.73
2023-03-12T00:47:22.361Z,73.63
2023-03-12T00:48:22.363Z,73.63
2023-03-12T00:49:22.350Z,73.10
2023-03-12T00:50:22.355Z,73.10
2023-03-12T00:51:22.325Z,73.66
2023-03-12T00:52:22.329Z,74.15
2023-03-12T00:53:22.304Z,73.52
2023-03-12T00:54:22.293Z,73.63
2023-03-12T00:55:22.300Z,73.52
2023-03-12T00:56:22.274Z,73.10
2023-03-12T00:57:22.267Z,73.21
2023-03-12T00:58:22.257Z,73.63
2023-03-12T00:59:22.239Z,73.52
2023-03-12T01:00:22.245Z,73.32
2023-03-12T01:01:22.227Z,73.21
2023-03-12T01:02:22.254Z,73.21
2023-03-12T01:03:22.203Z,73.63
2023-03-12T01:04:22.274Z,73.66
2023-03-12T01:05:22.191Z,73.76
2023-03-12T01:06:22.171Z,73.52
2023-03-12T01:07:22.150Z,73.52
2023-03-12T01:08:22.176Z,73.52
2023-03-12T01:09:22.136Z,73.94
2023-03-12T01:10:22.152Z,73.73
2023-03-12T01:11:22.120Z,73.38
2023-03-12T01:12:22.123Z,73.42
2023-03-12T01:13:22.097Z,73.42
2023-03-12T01:14:22.080Z,73.32
2023-03-12T01:15:22.087Z,73.49
2023-03-12T01:16:22.166Z,73.07
2023-03-12T01:17:22.051Z,73.49
2023-03-12T01:18:22.049Z,72.97
2023-03-12T01:19:22.029Z,73.07
2023-03-12T01:20:22.033Z,72.97
2023-03-12T01:21:22.016Z,73.38
2023-03-12T01:22:22.003Z,73.18
2023-03-12T01:23:21.991Z,73.18
2023-03-12T01:24:21.992Z,73.28
2023-03-12T01:25:21.986Z,72.76
2023-03-12T01:26:21.969Z,72.66
2023-03-12T01:27:21.950Z,73.38
2023-03-12T01:28:21.938Z,72.66
2023-03-12T01:29:21.925Z,73.59
2023-03-12T01:30:21.932Z,73.18
2023-03-12T01:31:21.974Z,73.38
2023-03-12T01:32:21.898Z,73.18
2023-03-12T01:33:21.878Z,72.41
2023-03-12T01:34:21.872Z,72.83
2023-03-12T01:35:21.912Z,72.93
2023-03-12T01:36:21.937Z,73.35
2023-03-12T01:37:21.852Z,73.80
2023-03-12T01:38:21.824Z,72.97
2023-03-12T01:39:21.809Z,72.97
2023-03-12T01:40:21.832Z,73.28
2023-03-12T01:41:21.796Z,73.28
2023-03-12T01:42:21.785Z,72.66
2023-03-12T01:43:21.767Z,73.18
2023-03-12T01:44:21.760Z,73.18
2023-03-12T01:45:21.762Z,73.38
2023-03-12T01:46:21.733Z,73.28
2023-03-12T01:47:21.725Z,73.28
2023-03-12T01:48:21.720Z,72.97
2023-03-12T01:49:21.703Z,73.07
2023-03-12T01:50:21.721Z,73.90
2023-03-12T01:51:21.680Z,73.80
2023-03-12T01:52:21.679Z,74.01
2023-03-12T01:53:21.661Z,73.49
2023-03-12T01:54:21.647Z,74.21
2023-03-12T01:55:21.655Z,73.90
2023-03-12T01:56:21.652Z,73.59
2023-03-12T01:57:21.614Z,73.69
2023-03-12T01:58:21.606Z,73.80
2023-03-12T01:59:21.604Z,74.08
2023-03-12T02:00:21.617Z,73.66
2023-03-12T02:01:21.768Z,73.46
2023-03-12T02:02:21.594Z,73.90
2023-03-12T02:03:21.553Z,73.77
2023-03-12T02:04:21.641Z,73.35
2023-03-12T02:05:21.537Z,73.49
2023-03-12T02:06:21.534Z,73.97
2023-03-12T02:07:21.522Z,73.87
2023-03-12T02:08:21.495Z,73.25
2023-03-12T02:09:21.495Z,73.56
2023-03-12T02:10:21.482Z,73.56
2023-03-12T02:11:21.490Z,73.46
2023-03-12T02:12:21.481Z,73.46
2023-03-12T02:13:21.448Z,73.35
2023-03-12T02:14:21.448Z,73.66
2023-03-12T02:15:21.433Z,73.56
2023-03-12T02:16:21.514Z,73.97
2023-03-12T02:17:21.411Z,73.77
2023-03-12T02:18:21.411Z,73.46
2023-03-12T02:19:21.385Z,73.66
2023-03-12T02:20:21.381Z,73.14
2023-03-12T02:21:21.392Z,72.93
2023-03-12T02:22:21.371Z,72.93
2023-03-12T02:23:21.349Z,72.93
2023-03-12T02:24:21.331Z,73.14
2023-03-12T02:25:21.319Z,73.35
2023-03-12T02:26:21.313Z,73.46
2023-03-12T02:27:21.324Z,73.46
2023-03-12T02:28:21.320Z,73.14
2023-03-12T02:29:21.284Z,73.25
2023-03-12T02:30:21.270Z,73.14
2023-03-12T02:31:21.326Z,73.14
2023-03-12T02:32:21.316Z,73.14
2023-03-12T02:33:21.242Z,73.14
2023-03-12T02:34:21.227Z,73.46
2023-03-12T02:35:21.229Z,73.35
2023-03-12T02:36:21.218Z,73.46
2023-03-12T02:37:21.212Z,73.49
2023-03-12T02:38:21.202Z,73.80
2023-03-12T02:39:21.172Z,73.66
2023-03-12T02:40:21.159Z,73.77
2023-03-12T02:41:21.174Z,73.49
2023-03-12T02:42:21.155Z,73.46
2023-03-12T02:43:21.128Z,73.56
2023-03-12T02:44:21.135Z,73.90
2023-03-12T02:45:21.110Z,73.38
2023-03-12T02:46:21.168Z,73.59
2023-03-12T02:47:21.110Z,73.59
2023-03-12T02:48:21.079Z,74.11
2023-03-12T02:49:21.072Z,73.69
2023-03-12T02:50:21.058Z,73.49
2023-03-12T02:51:21.062Z,73.69
2023-03-12T02:52:21.064Z,74.21
2023-03-12T02:53:21.020Z,74.21
2023-03-12T02:54:21.019Z,73.69
2023-03-12T02:55:21.002Z,74.01
2023-03-12T02:56:20.995Z,73.90
2023-03-12T02:57:20.992Z,74.11
2023-03-12T02:58:20.979Z,73.90
2023-03-12T02:59:20.961Z,74.35
2023-03-12T03:00:20.997Z,74.66
2023-03-12T03:01:20.993Z,74.56
2023-03-12T03:02:20.933Z,74.98
2023-03-12T03:03:20.927Z,74.98
2023-03-12T03:04:21.015Z,74.98
2023-03-12T03:05:20.905Z,74.98
2023-03-12T03:06:20.936Z,74.87
2023-03-12T03:07:20.872Z,75.09
2023-03-12T03:08:20.870Z,75.19
2023-03-12T03:09:20.864Z,75.22
2023-03-12T03:10:20.845Z,75.32
2023-03-12T03:11:20.852Z,75.43
2023-03-12T03:12:20.840Z,75.43
2023-03-12T03:13:20.817Z,75.50
2023-03-12T03:14:20.822Z,75.71
2023-03-12T03:15:20.796Z,75.32
2023-03-12T03:16:20.797Z,75.64
2023-03-12T03:17:20.803Z,75.64
2023-03-12T03:18:20.760Z,75.95
2023-03-12T03:19:20.808Z,76.06
2023-03-12T03:20:20.741Z,76.06
2023-03-12T03:21:20.876Z,76.16
2023-03-12T03:22:20.731Z,75.95
2023-03-12T03:23:20.709Z,76.06
2023-03-12T03:24:20.696Z,76.16
2023-03-12T03:25:20.686Z,76.16
2023-03-12T03:26:20.728Z,76.26
2023-03-12T03:27:20.665Z,76.37
2023-03-12T03:28:20.652Z,76.37
2023-03-12T03:29:20.669Z,76.37
2023-03-12T03:30:20.636Z,76.37
2023-03-12T03:31:20.741Z,76.37
2023-03-12T03:32:20.731Z,76.47
2023-03-12T03:33:20.602Z,76.57
2023-03-12T03:34:20.584Z,76.78
2023-03-12T03:35:20.579Z,76.57
2023-03-12T03:36:20.628Z,76.78
2023-03-12T03:37:20.555Z,76.68
2023-03-12T03:38:20.545Z,77.10
2023-03-12T03:39:20.541Z,76.78
2023-03-12T03:40:20.522Z,76.68
2023-03-12T03:41:20.551Z,76.68
2023-03-12T03:42:20.508Z,76.57
2023-03-12T03:43:20.488Z,76.78
2023-03-12T03:44:20.479Z,76.37
2023-03-12T03:45:20.471Z,76.47
2023-03-12T03:46:20.585Z,76.47
2023-03-12T03:47:20.462Z,76.57
2023-03-12T03:48:20.468Z,76.89
2023-03-12T03:49:20.425Z,76.68
2023-03-12T03:50:20.416Z,76.78
2023-03-12T03:51:20.427Z,76.68
2023-03-12T03:52:20.391Z,76.72
2023-03-12T03:53:20.390Z,76.82
2023-03-12T03:54:20.371Z,77.13
2023-03-12T03:55:20.361Z,76.99
2023-03-12T03:56:20.364Z,76.92
2023-03-12T03:57:20.337Z,77.31
2023-03-12T03:58:20.326Z,77.23
2023-03-12T03:59:20.358Z,77.23
2023-03-12T04:00:20.308Z,77.34
2023-03-12T04:01:20.336Z,77.86
2023-03-12T04:02:20.332Z,77.55
2023-03-12T04:03:20.403Z,77.55
2023-03-12T04:04:20.305Z,78.28
2023-03-12T04:05:20.265Z,77.76
2023-03-12T04:06:20.248Z,78.42
2023-03-12T04:07:20.271Z,78.31
2023-03-12T04:08:20.225Z,78.42
2023-03-12T04:09:20.242Z,78.73
2023-03-12T04:10:20.213Z,78.42
2023-03-12T04:11:20.223Z,78.42
2023-03-12T04:12:20.180Z,78.52
2023-03-12T04:13:20.167Z,78.42
2023-03-12T04:14:20.159Z,78.83
2023-03-12T04:15:20.149Z,78.73
2023-03-12T04:16:20.262Z,78.66
2023-03-12T04:17:20.135Z,78.87
2023-03-12T04:18:20.172Z,79.46
2023-03-12T04:19:20.104Z,79.05
2023-03-12T04:20:20.134Z,79.05
2023-03-12T04:21:20.108Z,79.29
2023-03-12T04:22:20.097Z,79.57
2023-03-12T04:23:20.069Z,79.98
2023-03-12T04:24:20.051Z,79.60
2023-03-12T04:25:20.041Z,80.13
2023-03-12T04:26:20.044Z,80.19
2023-03-12T04:27:20.023Z,79.88
2023-03-12T04:28:20.017Z,80.30
2023-03-12T04:29:19.994Z,79.77
2023-03-12T04:30:19.998Z,79.67
2023-03-12T04:31:20.043Z,80.40
2023-03-12T04:32:20.040Z,80.30
2023-03-12T04:33:19.953Z,80.40
2023-03-12T04:34:19.993Z,80.40
2023-03-12T04:35:19.929Z,80.19
2023-03-12T04:36:19.964Z,80.19
2023-03-12T04:37:19.914Z,79.98
2023-03-12T04:38:19.901Z,79.98
2023-03-12T04:39:19.896Z,79.98
2023-03-12T04:40:19.900Z,79.98
2023-03-12T04:41:19.893Z,79.98
2023-03-12T04:42:19.869Z,80.09
2023-03-12T04:43:19.847Z,80.09
2023-03-12T04:44:19.856Z,80.51
2023-03-12T04:45:19.829Z,79.98
2023-03-12T04:46:19.880Z,80.44
2023-03-12T04:47:19.817Z,80.19
2023-03-12T04:48:19.805Z,80.65
2023-03-12T04:49:19.784Z,80.33
2023-03-12T04:50:19.784Z,81.06
2023-03-12T04:51:19.766Z,80.33
2023-03-12T04:52:19.805Z,81.10
2023-03-12T04:53:19.788Z,80.96
2023-03-12T04:54:19.735Z,81.06
2023-03-12T04:55:19.728Z,80.85
2023-03-12T04:56:19.722Z,80.96
2023-03-12T04:57:19.764Z,81.06
2023-03-12T04:58:19.697Z,81.38
2023-03-12T04:59:19.682Z,80.85
2023-03-12T05:00:19.676Z,80.61
2023-03-12T05:01:19.666Z,81.02
2023-03-12T05:02:19.679Z,80.82
2023-03-12T05:03:19.641Z,80.85
2023-03-12T05:04:19.631Z,80.75
2023-03-12T05:05:19.629Z,81.27
2023-03-12T05:06:19.610Z,80.75
2023-03-12T05:07:19.636Z,80.75
2023-03-12T05:08:19.613Z,80.96
2023-03-12T05:09:19.584Z,81.27
2023-03-12T05:10:19.576Z,81.06
2023-03-12T05:11:19.568Z,81.52
2023-03-12T05:12:19.574Z,81.62
2023-03-12T05:13:19.544Z,82.25
2023-03-12T05:14:19.536Z,82.21
2023-03-12T05:15:19.530Z,82.21
2023-03-12T05:16:19.601Z,82.21
2023-03-12T05:17:19.534Z,82.10
2023-03-12T05:18:19.488Z,81.59
2023-03-12T05:19:19.471Z,81.52
2023-03-12T05:20:19.459Z,82.21
2023-03-12T05:21:19.457Z,82.10
2023-03-12T05:22:19.464Z,82.04
2023-03-12T05:23:19.428Z,81.93
2023-03-12T05:24:19.438Z,81.83
2023-03-12T05:25:19.405Z,82.04
2023-03-12T05:26:19.399Z,82.04
2023-03-12T05:27:19.413Z,82.04
2023-03-12T05:28:19.392Z,82.04
2023-03-12T05:29:19.364Z,82.04
2023-03-12T05:30:19.360Z,82.04
2023-03-12T05:31:19.437Z,82.04
2023-03-12T05:32:19.371Z,82.14
2023-03-12T05:33:19.323Z,81.93
2023-03-12T05:34:19.324Z,81.73
2023-03-12T05:35:19.302Z,81.79
2023-03-12T05:36:19.292Z,81.79
2023-03-12T05:37:19.289Z,82.10
2023-03-12T05:38:19.274Z,81.48
2023-03-12T05:39:19.260Z,81.06
2023-03-12T05:40:19.273Z,80.96
2023-03-12T05:41:19.243Z,80.82
2023-03-12T05:42:19.242Z,80.82
2023-03-12T05:43:19.217Z,80.40
2023-03-12T05:44:19.222Z,80.65
2023-03-12T05:45:19.199Z,80.51
2023-03-12T05:46:19.190Z,80.61
2023-03-12T05:47:19.202Z,80.61
2023-03-12T05:48:19.170Z,80.61
2023-03-12T05:49:19.153Z,80.47
2023-03-12T05:50:19.142Z,80.16
2023-03-12T05:51:19.134Z,79.84
2023-03-12T05:52:19.142Z,80.26
2023-03-12T05:53:19.113Z,80.33
2023-03-12T05:54:19.099Z,79.46
2023-03-12T05:55:19.089Z,79.04
2023-03-12T05:56:19.092Z,78.10
2023-03-12T05:57:19.102Z,78.38
2023-03-12T05:58:19.056Z,78.17
2023-03-12T05:59:19.047Z,77.65
2023-03-12T06:00:19.031Z,77.61
2023-03-12T06:01:19.022Z,77.48
2023-03-12T06:02:19.073Z,77.13
2023-03-12T06:03:19.013Z,76.09
2023-03-12T06:04:18.999Z,75.43
2023-03-12T06:05:18.979Z,74.91
2023-03-12T06:06:18.972Z,74.36
2023-03-12T06:07:19.002Z,73.22
2023-03-12T06:08:18.946Z,73.39
2023-03-12T06:09:18.939Z,72.97
2023-03-12T06:10:18.921Z,72.22
2023-03-12T06:11:18.911Z,71.87
2023-03-12T06:12:18.932Z,71.56
2023-03-12T06:13:18.893Z,71.01
2023-03-12T06:14:18.884Z,70.25
2023-03-12T06:15:18.890Z,69.63
2023-03-12T06:16:18.909Z,69.63
2023-03-12T06:17:18.874Z,69.63
2023-03-12T06:18:18.834Z,68.66
2023-03-12T06:19:18.834Z,68.22
2023-03-12T06:20:18.812Z,67.88
2023-03-12T06:21:18.809Z,67.12
2023-03-12T06:22:18.807Z,66.88
2023-03-12T06:23:21.481Z,66.26
2023-03-12T06:24:18.768Z,65.61
2023-03-12T06:25:18.762Z,65.06
2023-03-12T06:26:18.748Z,65.03
2023-03-12T06:27:18.830Z,63.67
2023-03-12T06:28:18.747Z,63.56
2023-03-12T06:29:18.735Z,62.19
2023-03-12T06:30:18.707Z,62.60
2023-03-12T06:31:18.761Z,62.68
2023-03-12T06:32:18.748Z,61.82
2023-03-12T06:33:18.675Z,61.52
2023-03-12T06:34:18.685Z,61.61
2023-03-12T06:35:18.651Z,60.87
2023-03-12T06:36:18.638Z,60.35
2023-03-12T06:37:18.665Z,59.70
2023-03-12T06:38:18.616Z,59.91
2023-03-12T06:39:18.609Z,60.02
2023-03-12T06:40:18.594Z,59.30
2023-03-12T06:41:18.589Z,59.91
2023-03-12T06:42:18.605Z,59.68
2023-03-12T06:43:18.563Z,58.80
2023-03-12T06:44:18.594Z,57.88
2023-03-12T06:45:18.538Z,57.62
2023-03-12T06:46:18.625Z,57.10
2023-03-12T06:47:18.546Z,56.64
2023-03-12T06:48:18.506Z,55.72
2023-03-12T06:49:18.494Z,55.28
2023-03-12T06:50:18.485Z,54.53
2023-03-12T06:51:18.488Z,54.00
2023-03-12T06:52:18.474Z,53.33
2023-03-12T06:53:18.457Z,52.36
2023-03-12T06:54:18.449Z,53.31
2023-03-12T06:55:18.430Z,54.05
2023-03-12T06:56:18.417Z,54.15
2023-03-12T06:57:18.453Z,54.05
2023-03-12T06:58:18.394Z,53.82
2023-03-12T06:59:18.409Z,53.39
2023-03-12T07:00:18.399Z,52.95
2023-03-12T07:01:18.363Z,52.34
2023-03-12T07:02:18.439Z,52.44
2023-03-12T07:03:18.343Z,52.75
2023-03-12T07:04:18.337Z,52.56
2023-03-12T07:05:18.374Z,52.87
2023-03-12T07:06:18.314Z,52.54
2023-03-12T07:07:18.324Z,52.75
2023-03-12T07:08:18.288Z,52.44
2023-03-12T07:09:18.288Z,51.16
2023-03-12T07:10:18.276Z,51.54
2023-03-12T07:11:18.261Z,51.12
2023-03-12T07:12:18.267Z,50.07
2023-03-12T07:13:18.235Z,50.22
2023-03-12T07:14:18.225Z,50.63
2023-03-12T07:15:18.221Z,49.83
2023-03-12T07:16:18.279Z,50.47
2023-03-12T07:17:18.257Z,51.23
2023-03-12T07:18:18.183Z,52.36
2023-03-12T07:19:18.186Z,53.18
2023-03-12T07:20:18.165Z,52.97
2023-03-12T07:21:18.155Z,52.75
2023-03-12T07:22:18.158Z,51.08
2023-03-12T07:23:18.131Z,50.96
2023-03-12T07:24:18.120Z,51.04
2023-03-12T07:25:19.108Z,49.89
2023-03-12T07:26:18.102Z,50.12
2023-03-12T07:27:18.102Z,50.17
2023-03-12T07:28:18.077Z,48.61
2023-03-12T07:29:18.065Z,49.46
2023-03-12T07:30:18.060Z,48.72
2023-03-12T07:31:18.055Z,48.41
2023-03-12T07:32:18.107Z,47.88
2023-03-12T07:33:18.136Z,48.28
2023-03-12T07:34:18.164Z,49.00
2023-03-12T07:35:18.066Z,48.26
2023-03-12T07:36:18.203Z,48.26
2023-03-12T07:37:17.995Z,47.96
2023-03-12T07:38:18.081Z,47.32
2023-03-12T07:39:17.961Z,47.09
2023-03-12T07:40:17.955Z,47.24
2023-03-12T07:41:17.991Z,47.42
2023-03-12T07:42:17.979Z,47.65
2023-03-12T07:43:20.358Z,47.45
2023-03-12T07:44:17.910Z,47.50
2023-03-12T07:45:17.914Z,47.40
2023-03-12T07:46:18.009Z,46.47
2023-03-12T07:47:24.216Z,46.48
2023-03-12T07:48:18.926Z,47.17
2023-03-12T07:49:17.856Z,45.95
2023-03-12T07:50:17.937Z,45.53
2023-03-12T07:51:17.823Z,46.26
2023-03-12T07:52:17.890Z,46.67
2023-03-12T07:53:17.820Z,46.47
2023-03-12T07:54:17.787Z,46.44
2023-03-12T07:55:17.867Z,45.71
2023-03-12T07:56:17.986Z,46.09
2023-03-12T07:57:17.922Z,44.67
2023-03-12T07:58:17.938Z,45.40
2023-03-12T07:59:17.818Z,45.53
2023-03-12T08:00:17.762Z,45.91
2023-03-12T08:01:17.816Z,45.91
2023-03-12T08:02:17.828Z,45.91
2023-03-12T08:03:17.915Z,46.03
2023-03-12T08:04:17.852Z,45.50
2023-03-12T08:05:17.670Z,46.11
2023-03-12T08:06:17.764Z,46.11
2023-03-12T08:07:17.697Z,45.40
2023-03-12T08:08:17.657Z,45.40
2023-03-12T08:09:17.622Z,45.20
2023-03-12T08:10:17.664Z,45.38
2023-03-12T08:11:17.599Z,45.18
2023-03-12T08:12:17.682Z,44.06
2023-03-12T08:13:17.621Z,44.46
2023-03-12T08:14:17.596Z,44.06
2023-03-12T08:15:17.566Z,45.07
2023-03-12T08:16:17.565Z,44.67
2023-03-12T08:17:17.548Z,44.87
2023-03-12T08:18:17.552Z,44.75
2023-03-12T08:19:17.512Z,44.04
2023-03-12T08:20:17.552Z,44.45
2023-03-12T08:21:17.495Z,44.54
2023-03-12T08:22:17.505Z,43.41
2023-03-12T08:23:17.484Z,43.41
2023-03-12T08:24:17.458Z,44.54
2023-03-12T08:25:17.455Z,44.77
2023-03-12T08:26:17.438Z,44.16
2023-03-12T08:27:17.427Z,44.36
2023-03-12T08:28:17.440Z,44.14
2023-03-12T08:29:17.402Z,44.54
2023-03-12T08:30:17.405Z,44.45
2023-03-12T08:31:17.419Z,44.83
2023-03-12T08:32:17.507Z,43.99
2023-03-12T08:33:17.432Z,44.22
2023-03-12T08:34:17.347Z,44.22
2023-03-12T08:35:17.340Z,44.30
2023-03-12T08:36:17.348Z,43.99
2023-03-12T08:37:17.315Z,43.47
2023-03-12T08:38:17.329Z,43.79
2023-03-12T08:39:17.310Z,43.77
2023-03-12T08:40:17.326Z,42.51
2023-03-12T08:41:17.283Z,42.41
2023-03-12T08:42:17.260Z,42.11
2023-03-12T08:43:17.275Z,42.92
2023-03-12T08:44:17.252Z,42.63
2023-03-12T08:45:17.238Z,42.84
2023-03-12T08:46:17.290Z,42.86
2023-03-12T08:47:17.233Z,43.91
2023-03-12T08:48:17.244Z,44.65
2023-03-12T08:49:17.194Z,44.04
2023-03-12T08:50:17.180Z,44.75
2023-03-12T08:51:17.212Z,44.95
2023-03-12T08:52:17.198Z,44.65
2023-03-12T08:53:17.174Z,44.95
2023-03-12T08:54:17.138Z,44.85
2023-03-12T08:55:17.123Z,44.16
2023-03-12T08:56:17.113Z,45.20
2023-03-12T08:57:17.107Z,45.45
2023-03-12T08:58:17.116Z,45.57
2023-03-12T08:59:17.082Z,47.12
2023-03-12T09:00:17.069Z,47.16
2023-03-12T09:01:17.077Z,47.78
2023-03-12T09:02:17.070Z,47.78
2023-03-12T09:03:17.082Z,48.10
2023-03-12T09:04:17.074Z,47.90
2023-03-12T09:05:17.014Z,48.13
2023-03-12T09:06:17.131Z,48.54
2023-03-12T09:07:17.019Z,48.31
2023-03-12T09:08:17.018Z,47.78
2023-03-12T09:09:16.971Z,47.45
2023-03-12T09:10:16.967Z,47.55
2023-03-12T09:11:16.951Z,47.86
2023-03-12T09:12:16.951Z,48.06
2023-03-12T09:13:16.943Z,47.45
2023-03-12T09:15:17.910Z,47.86
2023-03-12T09:16:16.930Z,47.22
2023-03-12T09:17:16.944Z,47.75
2023-03-12T09:18:16.944Z,47.96
2023-03-12T09:19:16.913Z,47.98
2023-03-12T09:20:16.858Z,47.45
2023-03-12T09:21:16.852Z,48.16
2023-03-12T09:22:16.838Z,47.55
2023-03-12T09:23:16.829Z,46.28
2023-03-12T09:24:16.840Z,47.20
2023-03-12T09:25:16.805Z,45.73
2023-03-12T09:26:16.789Z,45.61
2023-03-12T09:27:16.773Z,44.63
2023-03-12T09:28:16.785Z,43.87
2023-03-12T09:29:16.752Z,42.80
2023-03-12T09:30:16.741Z,42.17
2023-03-12T09:31:16.814Z,41.99
2023-03-12T09:32:16.815Z,41.91
2023-03-12T09:33:16.743Z,42.23
2023-03-12T09:34:16.693Z,43.16
2023-03-12T09:35:16.684Z,44.12
2023-03-12T09:36:16.670Z,43.69
2023-03-12T09:37:16.713Z,43.69
2023-03-12T09:38:16.688Z,43.41
2023-03-12T09:39:16.645Z,43.93
2023-03-12T09:40:16.648Z,43.96
2023-03-12T09:41:16.620Z,44.51
2023-03-12T09:42:16.603Z,44.93
2023-03-12T09:43:16.614Z,45.77
2023-03-12T09:44:16.582Z,45.87
2023-03-12T09:45:16.571Z,46.69
2023-03-12T09:46:16.586Z,45.95
2023-03-12T09:47:16.567Z,46.24
2023-03-12T09:48:16.539Z,45.42
2023-03-12T09:49:16.527Z,44.10
2023-03-12T09:50:16.515Z,44.79
2023-03-12T09:51:16.504Z,44.87
2023-03-12T09:52:16.505Z,44.22
2023-03-12T09:53:16.490Z,41.91
2023-03-12T09:54:16.486Z,40.63
2023-03-12T09:55:16.474Z,40.43
2023-03-12T09:56:16.475Z,40.51
2023-03-12T09:57:16.458Z,41.14
2023-03-12T09:58:16.432Z,40.45
2023-03-12T09:59:16.419Z,40.75
2023-03-12T10:00:16.410Z,40.75
2023-03-12T10:01:16.407Z,40.45
2023-03-12T10:02:16.416Z,40.02
2023-03-12T10:03:16.382Z,40.34
2023-03-12T10:04:16.462Z,41.05
2023-03-12T10:05:16.440Z,41.78
2023-03-12T10:06:16.422Z,41.07
2023-03-12T10:07:16.348Z,41.93
2023-03-12T10:08:23.937Z,43.16
2023-03-12T10:09:17.314Z,42.90
2023-03-12T10:10:16.305Z,43.99
2023-03-12T10:11:16.291Z,42.77
2023-03-12T10:12:16.304Z,42.59
2023-03-12T10:13:16.282Z,43.08
2023-03-12T10:14:23.938Z,43.20
2023-03-12T10:15:17.247Z,42.14
2023-03-12T10:16:16.394Z,42.35
2023-03-12T10:17:16.228Z,43.08
2023-03-12T10:18:16.458Z,43.08
2023-03-12T10:19:16.206Z,42.80
2023-03-12T10:20:16.202Z,43.84
2023-03-12T10:21:16.206Z,43.43
2023-03-12T10:22:16.176Z,43.43
2023-03-12T10:23:16.202Z,44.04
2023-03-12T10:24:16.150Z,43.63
2023-03-12T10:25:16.141Z,44.04
2023-03-12T10:26:16.132Z,43.81
2023-03-12T10:27:16.120Z,43.91
2023-03-12T10:28:16.139Z,44.34
2023-03-12T10:29:16.098Z,43.87
2023-03-12T10:30:16.089Z,44.59
2023-03-12T10:31:16.129Z,45.71
2023-03-12T10:32:16.096Z,45.12
2023-03-12T10:33:16.105Z,45.73
2023-03-12T10:34:16.051Z,45.42
2023-03-12T10:35:16.070Z,45.54
2023-03-12T10:36:16.031Z,45.63
2023-03-12T10:37:16.009Z,45.53
2023-03-12T10:38:16.015Z,46.36
2023-03-12T10:39:16.025Z,46.48
2023-03-12T10:40:15.984Z,47.12
2023-03-12T10:41:15.965Z,47.02
2023-03-12T10:42:15.952Z,47.55
2023-03-12T10:43:15.975Z,46.45
2023-03-12T10:44:15.974Z,46.43
2023-03-12T10:45:15.920Z,46.34
2023-03-12T10:46:15.928Z,47.08
2023-03-12T10:47:15.901Z,46.37
2023-03-12T10:48:15.915Z,46.67
2023-03-12T10:49:15.879Z,46.57
2023-03-12T10:50:15.870Z,46.59
2023-03-12T10:51:15.850Z,46.16
2023-03-12T10:52:15.847Z,46.90
2023-03-12T10:53:15.851Z,47.92
2023-03-12T10:54:15.820Z,48.23
2023-03-12T10:55:15.808Z,48.02
2023-03-12T10:56:15.803Z,48.43
2023-03-12T10:57:15.808Z,48.56
2023-03-12T10:58:15.782Z,48.15
2023-03-12T10:59:15.763Z,46.82
2023-03-12T11:00:15.780Z,46.41
2023-03-12T11:01:15.782Z,47.76
2023-03-12T11:02:15.761Z,47.97
2023-03-12T11:03:15.762Z,48.40
2023-03-12T11:04:15.712Z,48.40
2023-03-12T11:05:15.702Z,48.17
2023-03-12T11:06:15.875Z,48.50
2023-03-12T11:07:15.680Z,48.30
2023-03-12T11:08:15.691Z,48.40
2023-03-12T11:09:17.352Z,48.22
2023-03-12T11:10:15.646Z,48.40
2023-03-12T11:11:15.637Z,48.50
2023-03-12T11:12:15.660Z,48.52
2023-03-12T11:13:15.626Z,48.71
2023-03-12T11:14:15.633Z,48.73
2023-03-12T11:15:15.591Z,49.14
2023-03-12T11:16:15.631Z,49.88
2023-03-12T11:17:15.568Z,49.90
2023-03-12T11:18:15.578Z,50.62
2023-03-12T11:19:15.547Z,51.03
2023-03-12T11:20:15.536Z,49.06
2023-03-12T11:21:15.523Z,48.24
2023-03-12T11:22:15.544Z,48.67
2023-03-12T11:23:15.499Z,48.88
2023-03-12T11:24:15.493Z,50.01
2023-03-12T11:25:15.480Z,50.52
2023-03-12T11:26:15.513Z,48.88
2023-03-12T11:27:15.503Z,49.90
2023-03-12T11:28:15.473Z,50.42
2023-03-12T11:29:15.518Z,49.90
2023-03-12T11:30:15.506Z,50.52
2023-03-12T11:31:15.551Z,49.90
2023-03-12T11:32:15.544Z,49.88
2023-03-12T11:33:15.405Z,49.26
2023-03-12T11:34:15.382Z,48.67
2023-03-12T11:35:15.382Z,48.77
2023-03-12T11:36:15.361Z,48.67
2023-03-12T11:37:15.365Z,47.96
2023-03-12T11:38:15.338Z,48.36
2023-03-12T11:39:15.327Z,48.36
2023-03-12T11:40:15.317Z,48.85
2023-03-12T11:41:15.303Z,48.57
2023-03-12T11:42:15.353Z,48.39
2023-03-12T11:43:15.284Z,48.80
2023-03-12T11:44:15.293Z,50.36
2023-03-12T11:45:15.279Z,48.92
2023-03-12T11:46:15.287Z,48.41
2023-03-12T11:47:15.291Z,48.41
2023-03-12T11:48:15.290Z,48.82
2023-03-12T11:49:15.233Z,48.74
2023-03-12T11:50:15.233Z,48.41
2023-03-12T11:51:15.200Z,48.69
2023-03-12T11:52:15.189Z,48.72
2023-03-12T11:53:15.178Z,48.51
2023-03-12T11:54:15.191Z,48.33
2023-03-12T11:55:16.568Z,48.33
2023-03-12T11:56:15.151Z,49.02
2023-03-12T11:57:15.134Z,48.94
2023-03-12T11:58:15.125Z,48.72
2023-03-12T11:59:15.135Z,49.41
2023-03-12T12:00:15.099Z,48.59
2023-03-12T12:01:15.089Z,48.39
2023-03-12T12:02:15.113Z,47.97
2023-03-12T12:03:15.105Z,47.97
2023-03-12T12:04:15.091Z,47.24
2023-03-12T12:05:15.047Z,46.62
2023-03-12T12:06:15.033Z,43.26
2023-03-12T12:07:15.018Z,42.34
2023-03-12T12:08:15.010Z,41.41
2023-03-12T12:09:15.060Z,41.41
2023-03-12T12:10:14.987Z,42.56
2023-03-12T12:11:14.975Z,43.16
2023-03-12T12:12:14.970Z,43.38
2023-03-12T12:13:14.957Z,43.57
2023-03-12T12:14:14.959Z,43.46
2023-03-12T12:15:14.941Z,43.16
2023-03-12T12:16:14.981Z,42.77
2023-03-12T12:17:14.937Z,43.38
2023-03-12T12:18:14.902Z,42.56
2023-03-12T12:19:14.905Z,42.46
2023-03-12T12:20:14.903Z,42.77
2023-03-12T12:21:14.866Z,42.79
2023-03-12T12:22:14.860Z,43.59
2023-03-12T12:23:14.851Z,43.38
2023-03-12T12:24:17.773Z,43.20
2023-03-12T12:25:14.834Z,42.69
2023-03-12T12:26:14.819Z,42.89
2023-03-12T12:27:14.803Z,42.38
2023-03-12T12:28:14.789Z,43.20
2023-03-12T12:29:14.806Z,42.69
2023-03-12T12:30:14.768Z,42.99
2023-03-12T12:31:14.800Z,42.58
2023-03-12T12:32:14.847Z,42.79
2023-03-12T12:33:14.732Z,43.20
2023-03-12T12:34:14.725Z,42.69
2023-03-12T12:35:14.770Z,42.17
2023-03-12T12:36:14.776Z,41.35
2023-03-12T12:37:14.722Z,41.56
2023-03-12T12:38:14.680Z,41.66
2023-03-12T12:39:14.671Z,42.07
2023-03-12T12:40:14.659Z,42.38
2023-03-12T12:41:14.645Z,41.88
2023-03-12T12:42:14.657Z,42.89
2023-03-12T12:43:14.628Z,42.07
2023-03-12T12:44:14.641Z,41.37
2023-03-12T12:45:14.604Z,40.24
2023-03-12T12:46:14.684Z,40.75
2023-03-12T12:47:15.049Z,41.78
2023-03-12T12:48:15.319Z,41.58
2023-03-12T12:49:14.589Z,41.88
2023-03-12T12:50:14.583Z,41.47
2023-03-12T12:51:14.537Z,42.27
2023-03-12T12:52:14.545Z,40.96
2023-03-12T12:53:14.515Z,41.58